sensor_id;sensor_type;location;lat;lon;timestamp;pressure;altitude;pressure_sealevel;temperature;humidity
20987;BME280;10652;50.306;8.570;2023-02-13T00:03:26;100042.69;;;6.10;100.00
20987;BME280;10652;50.306;8.570;2023-02-13T00:07:28;100046.16;;;6.09;100.00
20987;BME280;10652;50.306;8.570;2023-02-13T00:11:30;100035.72;;;6.09;100.00
20987;BME280;10652;50.306;8.570;2023-02-13T00:15:32;100034.88;;;6.07;100.00
20987;BME280;10652;50.306;8.570;2023-02-13T00:19:34;100027.88;;;6.04;100.00
20987;BME280;10652;50.306;8.570;2023-02-13T00:23:38;100027.91;;;6.08;100.00
20987;BME280;10652;50.306;8.570;2023-02-13T00:27:40;100028.78;;;6.07;100.00
20987;BME280;10652;50.306;8.570;2023-02-13T00:31:42;100023.56;;;6.05;100.00
20987;BME280;10652;50.306;8.570;2023-02-13T00:35:44;100022.69;;;6.04;100.00
20987;BME280;10652;50.306;8.570;2023-02-13T00:39:46;100017.47;;;6.08;100.00
20987;BME280;10652;50.306;8.570;2023-02-13T00:43:49;100023.56;;;6.10;100.00
20987;BME280;10652;50.306;8.570;2023-02-13T00:47:51;100024.44;;;6.07;100.00
20987;BME280;10652;50.306;8.570;2023-02-13T00:51:55;100024.41;;;6.09;100.00
20987;BME280;10652;50.306;8.570;2023-02-13T00:55:58;100020.09;;;6.11;100.00
20987;BME280;10652;50.306;8.570;2023-02-13T01:00:00;100030.53;;;6.14;100.00
20987;BME280;10652;50.306;8.570;2023-02-13T01:04:02;100021.81;;;6.05;100.00
20987;BME280;10652;50.306;8.570;2023-02-13T01:08:05;100019.22;;;6.02;100.00
20987;BME280;10652;50.306;8.570;2023-02-13T01:12:07;100020.06;;;6.04;100.00
20987;BME280;10652;50.306;8.570;2023-02-13T01:16:09;100011.41;;;6.21;100.00
20987;BME280;10652;50.306;8.570;2023-02-13T01:20:12;100015.75;;;6.16;100.00
20987;BME280;10652;50.306;8.570;2023-02-13T01:24:14;100019.22;;;6.12;100.00
20987;BME280;10652;50.306;8.570;2023-02-13T01:28:16;100016.63;;;6.12;100.00
20987;BME280;10652;50.306;8.570;2023-02-13T01:32:18;100012.25;;;6.08;100.00
20987;BME280;10652;50.306;8.570;2023-02-13T01:36:21;100026.16;;;6.10;100.00
20987;BME280;10652;50.306;8.570;2023-02-13T01:40:23;100014.88;;;6.08;100.00
20987;BME280;10652;50.306;8.570;2023-02-13T01:44:44;100008.75;;;5.99;100.00
20987;BME280;10652;50.306;8.570;2023-02-13T01:48:50;100001.81;;;6.01;100.00
20987;BME280;10652;50.306;8.570;2023-02-13T01:52:59;99993.13;;;6.02;100.00
20987;BME280;10652;50.306;8.570;2023-02-13T01:57:12;99998.34;;;6.02;100.00
20987;BME280;10652;50.306;8.570;2023-02-13T02:01:16;99984.41;;;6.02;100.00
20987;BME280;10652;50.306;8.570;2023-02-13T02:05:20;99987.03;;;6.07;100.00
20987;BME280;10652;50.306;8.570;2023-02-13T02:09:28;99987.91;;;6.05;100.00
20987;BME280;10652;50.306;8.570;2023-02-13T02:13:31;99985.31;;;6.07;100.00
20987;BME280;10652;50.306;8.570;2023-02-13T02:17:38;99979.22;;;6.07;99.61
20987;BME280;10652;50.306;8.570;2023-02-13T02:38:46;99985.25;;;5.89;98.90
20987;BME280;10652;50.306;8.570;2023-02-13T02:43:13;99982.59;;;5.81;98.80
20987;BME280;10652;50.306;8.570;2023-02-13T02:52:07;99984.34;;;5.79;98.91
20987;BME280;10652;50.306;8.570;2023-02-13T02:56:20;99973.88;;;5.73;99.34
20987;BME280;10652;50.306;8.570;2023-02-13T03:00:25;99983.44;;;5.70;99.60
20987;BME280;10652;50.306;8.570;2023-02-13T03:04:52;99979.06;;;5.64;99.59
20987;BME280;10652;50.306;8.570;2023-02-13T03:09:35;99987.78;;;5.58;99.78
20987;BME280;10652;50.306;8.570;2023-02-13T03:13:57;99987.72;;;5.48;98.82
20987;BME280;10652;50.306;8.570;2023-02-13T03:18:02;99992.00;;;5.37;99.62
20987;BME280;10652;50.306;8.570;2023-02-13T03:22:28;99982.41;;;5.27;100.00
20987;BME280;10652;50.306;8.570;2023-02-13T03:26:58;99982.31;;;5.11;100.00
20987;BME280;10652;50.306;8.570;2023-02-13T03:31:10;99990.03;;;4.98;100.00
20987;BME280;10652;50.306;8.570;2023-02-13T03:40:15;99986.38;;;4.70;100.00
20987;BME280;10652;50.306;8.570;2023-02-13T03:44:30;99987.13;;;4.57;100.00
20987;BME280;10652;50.306;8.570;2023-02-13T03:48:36;99988.72;;;4.40;100.00
20987;BME280;10652;50.306;8.570;2023-02-13T03:53:02;99996.44;;;4.32;100.00
20987;BME280;10652;50.306;8.570;2023-02-13T03:57:08;99992.00;;;4.20;100.00
20987;BME280;10652;50.306;8.570;2023-02-13T04:01:33;99998.91;;;4.15;100.00
20987;BME280;10652;50.306;8.570;2023-02-13T04:05:41;100004.88;;;4.07;100.00
20987;BME280;10652;50.306;8.570;2023-02-13T04:09:44;99996.13;;;3.99;100.00
20987;BME280;10652;50.306;8.570;2023-02-13T04:13:58;100001.28;;;3.94;100.00
20987;BME280;10652;50.306;8.570;2023-02-13T04:18:07;99996.00;;;3.88;100.00
20987;BME280;10652;50.306;8.570;2023-02-13T04:22:12;99998.44;;;3.76;100.00
20987;BME280;10652;50.306;8.570;2023-02-13T04:26:17;99998.31;;;3.65;100.00
20987;BME280;10652;50.306;8.570;2023-02-13T04:30:20;99998.16;;;3.55;100.00
20987;BME280;10652;50.306;8.570;2023-02-13T04:34:22;99999.75;;;3.42;100.00
20987;BME280;10652;50.306;8.570;2023-02-13T04:38:24;99998.81;;;3.35;100.00
20987;BME280;10652;50.306;8.570;2023-02-13T04:42:26;99997.00;;;3.30;100.00
20987;BME280;10652;50.306;8.570;2023-02-13T04:46:29;99997.81;;;3.26;100.00
20987;BME280;10652;50.306;8.570;2023-02-13T04:50:31;99991.59;;;3.15;100.00
20987;BME280;10652;50.306;8.570;2023-02-13T04:54:33;99988.91;;;3.07;100.00
20987;BME280;10652;50.306;8.570;2023-02-13T04:58:35;99995.78;;;3.05;100.00
20987;BME280;10652;50.306;8.570;2023-02-13T05:02:37;99998.41;;;3.07;100.00
20987;BME280;10652;50.306;8.570;2023-02-13T05:06:41;99997.41;;;2.97;100.00
20987;BME280;10652;50.306;8.570;2023-02-13T05:10:43;100003.34;;;2.88;100.00
20987;BME280;10652;50.306;8.570;2023-02-13T05:14:45;99999.81;;;2.86;100.00
20987;BME280;10652;50.306;8.570;2023-02-13T05:18:47;100004.09;;;2.83;100.00
20987;BME280;10652;50.306;8.570;2023-02-13T05:22:51;99997.03;;;2.71;100.00
20987;BME280;10652;50.306;8.570;2023-02-13T05:27:13;100001.03;;;2.53;100.00
20987;BME280;10652;50.306;8.570;2023-02-13T05:31:15;100008.63;;;2.42;100.00
20987;BME280;10652;50.306;8.570;2023-02-13T05:35:18;100011.94;;;2.33;100.00
20987;BME280;10652;50.306;8.570;2023-02-13T05:39:20;100018.84;;;2.31;100.00
20987;BME280;10652;50.306;8.570;2023-02-13T05:43:22;100010.81;;;2.18;100.00
20987;BME280;10652;50.306;8.570;2023-02-13T05:47:24;100009.78;;;2.10;100.00
20987;BME280;10652;50.306;8.570;2023-02-13T05:51:26;100002.88;;;2.10;100.00
20987;BME280;10652;50.306;8.570;2023-02-13T05:55:28;100002.75;;;2.02;100.00
20987;BME280;10652;50.306;8.570;2023-02-13T05:59:30;99998.31;;;1.97;100.00
20987;BME280;10652;50.306;8.570;2023-02-13T06:03:32;100000.72;;;1.88;100.00
20987;BME280;10652;50.306;8.570;2023-02-13T06:07:35;100001.44;;;1.79;100.00
20987;BME280;10652;50.306;8.570;2023-02-13T06:11:37;99998.41;;;1.56;98.56
20987;BME280;10652;50.306;8.570;2023-02-13T06:15:39;100005.13;;;1.48;100.00
20987;BME280;10652;50.306;8.570;2023-02-13T06:19:41;99999.97;;;1.48;100.00
20987;BME280;10652;50.306;8.570;2023-02-13T06:23:43;100001.59;;;1.43;100.00
20987;BME280;10652;50.306;8.570;2023-02-13T06:27:46;100010.09;;;1.38;100.00
20987;BME280;10652;50.306;8.570;2023-02-13T06:31:48;99998.44;;;1.18;100.00
20987;BME280;10652;50.306;8.570;2023-02-13T06:35:50;99999.28;;;1.18;100.00
20987;BME280;10652;50.306;8.570;2023-02-13T06:39:52;100000.06;;;1.14;100.00
20987;BME280;10652;50.306;8.570;2023-02-13T06:43:54;99999.72;;;0.97;100.00
20987;BME280;10652;50.306;8.570;2023-02-13T06:47:56;99990.03;;;0.89;100.00
20987;BME280;10652;50.306;8.570;2023-02-13T06:51:58;100003.06;;;0.93;100.00
20987;BME280;10652;50.306;8.570;2023-02-13T06:56:03;100004.72;;;0.90;100.00
20987;BME280;10652;50.306;8.570;2023-02-13T07:00:07;100003.13;;;0.95;100.00
20987;BME280;10652;50.306;8.570;2023-02-13T07:04:09;100013.59;;;1.01;100.00
20987;BME280;10652;50.306;8.570;2023-02-13T07:08:12;100016.38;;;1.10;100.00
20987;BME280;10652;50.306;8.570;2023-02-13T07:12:14;100014.56;;;1.06;100.00
20987;BME280;10652;50.306;8.570;2023-02-13T07:16:16;100019.94;;;1.15;100.00
20987;BME280;10652;50.306;8.570;2023-02-13T07:20:18;100014.72;;;1.12;100.00
20987;BME280;10652;50.306;8.570;2023-02-13T07:24:20;100011.28;;;1.13;100.00
20987;BME280;10652;50.306;8.570;2023-02-13T07:28:22;100004.81;;;1.33;100.00
20987;BME280;10652;50.306;8.570;2023-02-13T07:32:24;100016.47;;;1.55;100.00
20987;BME280;10652;50.306;8.570;2023-02-13T07:36:27;100012.38;;;1.65;100.00
20987;BME280;10652;50.306;8.570;2023-02-13T07:40:29;100014.16;;;1.69;100.00
20987;BME280;10652;50.306;8.570;2023-02-13T07:44:31;100013.16;;;1.61;99.67
20987;BME280;10652;50.306;8.570;2023-02-13T07:48:33;100023.41;;;1.56;100.00
20987;BME280;10652;50.306;8.570;2023-02-13T07:52:35;100015.75;;;1.61;100.00
20987;BME280;10652;50.306;8.570;2023-02-13T07:56:38;100019.63;;;1.81;100.00
20987;BME280;10652;50.306;8.570;2023-02-13T08:00:40;100018.16;;;1.95;100.00
20987;BME280;10652;50.306;8.570;2023-02-13T08:04:43;100014.09;;;2.09;100.00
20987;BME280;10652;50.306;8.570;2023-02-13T08:08:48;100029.22;;;2.31;100.00
20987;BME280;10652;50.306;8.570;2023-02-13T08:13:12;100024.25;;;2.46;100.00
20987;BME280;10652;50.306;8.570;2023-02-13T08:17:14;100027.13;;;2.62;100.00
20987;BME280;10652;50.306;8.570;2023-02-13T08:21:16;100012.66;;;2.76;100.00
20987;BME280;10652;50.306;8.570;2023-02-13T08:25:18;100021.56;;;2.93;100.00
20987;BME280;10652;50.306;8.570;2023-02-13T08:29:21;100019.22;;;3.08;100.00
20987;BME280;10652;50.306;8.570;2023-02-13T08:33:23;100025.53;;;3.28;100.00
20987;BME280;10652;50.306;8.570;2023-02-13T08:37:25;100019.78;;;3.49;100.00
20987;BME280;10652;50.306;8.570;2023-02-13T08:41:27;100017.41;;;3.69;100.00
20987;BME280;10652;50.306;8.570;2023-02-13T08:45:30;100028.09;;;3.92;100.00
20987;BME280;10652;50.306;8.570;2023-02-13T08:49:33;100028.34;;;4.11;100.00
20987;BME280;10652;50.306;8.570;2023-02-13T08:53:35;100030.28;;;4.31;100.00
20987;BME280;10652;50.306;8.570;2023-02-13T08:57:37;100029.53;;;4.45;100.00
20987;BME280;10652;50.306;8.570;2023-02-13T09:01:40;100025.31;;;4.58;100.00
20987;BME280;10652;50.306;8.570;2023-02-13T09:05:42;100034.13;;;4.72;100.00
20987;BME280;10652;50.306;8.570;2023-02-13T09:09:44;100028.16;;;4.88;100.00
20987;BME280;10652;50.306;8.570;2023-02-13T09:13:46;100029.13;;;5.01;100.00
20987;BME280;10652;50.306;8.570;2023-02-13T09:17:49;100030.97;;;5.15;100.00
20987;BME280;10652;50.306;8.570;2023-02-13T09:21:52;100027.56;;;5.26;100.00
20987;BME280;10652;50.306;8.570;2023-02-13T09:25:54;100032.81;;;5.33;100.00
20987;BME280;10652;50.306;8.570;2023-02-13T09:29:56;100026.81;;;5.45;100.00
20987;BME280;10652;50.306;8.570;2023-02-13T09:33:58;100031.22;;;5.58;100.00
20987;BME280;10652;50.306;8.570;2023-02-13T09:38:00;100026.03;;;5.67;100.00
20987;BME280;10652;50.306;8.570;2023-02-13T09:42:05;100023.47;;;5.79;100.00
20987;BME280;10652;50.306;8.570;2023-02-13T09:46:18;100026.13;;;5.88;99.01
20987;BME280;10652;50.306;8.570;2023-02-13T09:50:25;100026.16;;;5.94;98.29
20987;BME280;10652;50.306;8.570;2023-02-13T09:54:29;100035.75;;;6.08;97.33
20987;BME280;10652;50.306;8.570;2023-02-13T09:58:48;100035.78;;;6.17;95.77
20987;BME280;10652;50.306;8.570;2023-02-13T10:07:37;100031.47;;;6.37;93.78
20987;BME280;10652;50.306;8.570;2023-02-13T10:12:03;100032.38;;;6.51;92.40
20987;BME280;10652;50.306;8.570;2023-02-13T10:16:57;100026.31;;;6.66;90.81
20987;BME280;10652;50.306;8.570;2023-02-13T10:20:47;100035.00;;;6.80;89.33
20987;BME280;10652;50.306;8.570;2023-02-13T10:25:09;100028.91;;;6.85;87.71
20987;BME280;10652;50.306;8.570;2023-02-13T10:29:24;100028.03;;;6.96;86.46
20987;BME280;10652;50.306;8.570;2023-02-13T10:33:59;100025.41;;;7.06;85.04
20987;BME280;10652;50.306;8.570;2023-02-13T10:38:13;100021.94;;;7.12;83.33
20987;BME280;10652;50.306;8.570;2023-02-13T10:42:40;100020.16;;;7.21;82.71
20987;BME280;10652;50.306;8.570;2023-02-13T10:51:37;100015.75;;;7.38;80.20
20987;BME280;10652;50.306;8.570;2023-02-13T10:56:04;100025.31;;;7.52;79.57
20987;BME280;10652;50.306;8.570;2023-02-13T11:04:19;100007.81;;;7.69;77.49
20987;BME280;10652;50.306;8.570;2023-02-13T11:08:31;100012.13;;;7.77;76.15
20987;BME280;10652;50.306;8.570;2023-02-13T11:12:34;99999.91;;;7.84;75.73
20987;BME280;10652;50.306;8.570;2023-02-13T11:16:43;99996.38;;;7.94;74.32
20987;BME280;10652;50.306;8.570;2023-02-13T11:20:58;99994.56;;;8.04;74.20
20987;BME280;10652;50.306;8.570;2023-02-13T11:25:27;99982.25;;;8.13;73.34
20987;BME280;10652;50.306;8.570;2023-02-13T11:29:34;99974.38;;;8.24;72.84
20987;BME280;10652;50.306;8.570;2023-02-13T11:33:36;99971.75;;;8.30;72.29
20987;BME280;10652;50.306;8.570;2023-02-13T11:37:38;99964.66;;;8.41;71.64
20987;BME280;10652;50.306;8.570;2023-02-13T11:41:43;99961.09;;;8.51;71.38
20987;BME280;10652;50.306;8.570;2023-02-13T11:45:45;99966.25;;;8.62;70.94
20987;BME280;10652;50.306;8.570;2023-02-13T11:49:47;99969.63;;;8.75;69.86
20987;BME280;10652;50.306;8.570;2023-02-13T11:53:50;99971.25;;;8.88;69.42
20987;BME280;10652;50.306;8.570;2023-02-13T11:57:58;99956.31;;;8.96;67.99
20987;BME280;10652;50.306;8.570;2023-02-13T12:10:21;99959.56;;;9.19;66.54
20987;BME280;10652;50.306;8.570;2023-02-13T12:14:29;99962.09;;;9.27;65.47
20987;BME280;10652;50.306;8.570;2023-02-13T12:18:36;99964.66;;;9.34;64.63
20987;BME280;10652;50.306;8.570;2023-02-13T12:26:56;99953.88;;;9.55;63.48
20987;BME280;10652;50.306;8.570;2023-02-13T12:35:37;99939.84;;;9.59;61.29
20987;BME280;10652;50.306;8.570;2023-02-13T12:40:07;99931.03;;;9.67;61.25
20987;BME280;10652;50.306;8.570;2023-02-13T12:53:10;99920.25;;;9.88;59.45
20987;BME280;10652;50.306;8.570;2023-02-13T12:57:43;99917.53;;;9.94;59.67
20987;BME280;10652;50.306;8.570;2023-02-13T13:02:26;99915.72;;;9.99;59.12
20987;BME280;10652;50.306;8.570;2023-02-13T13:06:45;99907.88;;;9.96;58.86
20987;BME280;10652;50.306;8.570;2023-02-13T13:15:16;99910.47;;;9.99;58.87
20987;BME280;10652;50.306;8.570;2023-02-13T13:19:35;99912.25;;;9.97;58.88
20987;BME280;10652;50.306;8.570;2023-02-13T13:23:58;99916.75;;;9.89;59.02
20987;BME280;10652;50.306;8.570;2023-02-13T13:28:13;99907.13;;;9.88;59.97
20987;BME280;10652;50.306;8.570;2023-02-13T13:32:20;99905.34;;;9.90;60.07
20987;BME280;10652;50.306;8.570;2023-02-13T13:40:55;99891.22;;;9.97;60.11
20987;BME280;10652;50.306;8.570;2023-02-13T13:49:43;99892.03;;;10.02;58.79
20987;BME280;10652;50.306;8.570;2023-02-13T13:58:00;99892.97;;;9.98;57.78
20987;BME280;10652;50.306;8.570;2023-02-13T14:06:26;99884.22;;;9.99;56.69
20987;BME280;10652;50.306;8.570;2023-02-13T14:18:36;99873.75;;;9.96;57.17
20987;BME280;10652;50.306;8.570;2023-02-13T14:22:39;99871.97;;;9.96;57.27
20987;BME280;10652;50.306;8.570;2023-02-13T14:26:42;99872.84;;;9.97;57.63
20987;BME280;10652;50.306;8.570;2023-02-13T14:30:44;99876.34;;;9.99;57.78
20987;BME280;10652;50.306;8.570;2023-02-13T14:34:56;99870.31;;;9.91;57.68
20987;BME280;10652;50.306;8.570;2023-02-13T14:43:26;99880.84;;;9.89;58.07
20987;BME280;10652;50.306;8.570;2023-02-13T14:47:32;99873.00;;;9.88;57.81
20987;BME280;10652;50.306;8.570;2023-02-13T14:51:45;99869.56;;;9.84;58.04
20987;BME280;10652;50.306;8.570;2023-02-13T14:55:54;99856.50;;;9.80;58.21
20987;BME280;10652;50.306;8.570;2023-02-13T15:00:00;99853.06;;;9.75;58.17
20987;BME280;10652;50.306;8.570;2023-02-13T15:04:22;99857.47;;;9.70;57.92
20987;BME280;10652;50.306;8.570;2023-02-13T15:08:31;99847.91;;;9.67;58.07
20987;BME280;10652;50.306;8.570;2023-02-13T15:12:35;99850.56;;;9.64;58.02
20987;BME280;10652;50.306;8.570;2023-02-13T15:16:37;99850.63;;;9.59;57.71
20987;BME280;10652;50.306;8.570;2023-02-13T15:20:42;99855.06;;;9.54;57.84
20987;BME280;10652;50.306;8.570;2023-02-13T15:24:45;99845.50;;;9.52;58.21
20987;BME280;10652;50.306;8.570;2023-02-13T15:29:16;99847.31;;;9.47;58.21
20987;BME280;10652;50.306;8.570;2023-02-13T15:33:42;99847.38;;;9.42;58.36
20987;BME280;10652;50.306;8.570;2023-02-13T15:37:45;99845.72;;;9.35;58.23
20987;BME280;10652;50.306;8.570;2023-02-13T15:41:49;99845.81;;;9.28;58.03
20987;BME280;10652;50.306;8.570;2023-02-13T15:45:51;99852.94;;;9.18;58.11
20987;BME280;10652;50.306;8.570;2023-02-13T15:49:54;99849.53;;;9.10;58.31
20987;BME280;10652;50.306;8.570;2023-02-13T15:54:00;99846.16;;;9.02;58.63
20987;BME280;10652;50.306;8.570;2023-02-13T15:58:02;99847.13;;;8.92;58.83
20987;BME280;10652;50.306;8.570;2023-02-13T16:02:12;99845.50;;;8.85;59.14
20987;BME280;10652;50.306;8.570;2023-02-13T16:06:18;99850.81;;;8.76;59.37
20987;BME280;10652;50.306;8.570;2023-02-13T16:10:35;99853.56;;;8.65;59.87
20987;BME280;10652;50.306;8.570;2023-02-13T16:14:58;99845.78;;;8.54;60.51
20987;BME280;10652;50.306;8.570;2023-02-13T16:19:03;99851.13;;;8.47;61.20
20987;BME280;10652;50.306;8.570;2023-02-13T16:23:25;99849.47;;;8.38;61.65
20987;BME280;10652;50.306;8.570;2023-02-13T16:27:28;99848.66;;;8.27;62.02
20987;BME280;10652;50.306;8.570;2023-02-13T16:31:30;99854.00;;;8.13;62.70
20987;BME280;10652;50.306;8.570;2023-02-13T16:35:34;99851.50;;;8.00;63.19
20987;BME280;10652;50.306;8.570;2023-02-13T16:39:38;99852.50;;;7.85;64.00
20987;BME280;10652;50.306;8.570;2023-02-13T16:43:48;99858.66;;;7.73;64.66
20987;BME280;10652;50.306;8.570;2023-02-13T16:47:58;99856.16;;;7.58;65.15
20987;BME280;10652;50.306;8.570;2023-02-13T16:52:13;99859.72;;;7.44;66.14
20987;BME280;10652;50.306;8.570;2023-02-13T16:56:17;99863.28;;;7.27;67.24
20987;BME280;10652;50.306;8.570;2023-02-13T17:00:20;99878.13;;;7.18;67.72
20987;BME280;10652;50.306;8.570;2023-02-13T17:04:26;99879.09;;;7.03;68.28
20987;BME280;10652;50.306;8.570;2023-02-13T17:08:31;99881.75;;;6.85;68.95
20987;BME280;10652;50.306;8.570;2023-02-13T17:12:36;99889.63;;;6.67;69.67
20987;BME280;10652;50.306;8.570;2023-02-13T17:16:38;99888.78;;;6.51;70.50
20987;BME280;10652;50.306;8.570;2023-02-13T17:20:42;99883.56;;;6.30;71.17
20987;BME280;10652;50.306;8.570;2023-02-13T17:24:44;99881.81;;;6.08;71.52
20987;BME280;10652;50.306;8.570;2023-02-13T17:28:46;99891.31;;;5.86;72.01
20987;BME280;10652;50.306;8.570;2023-02-13T17:32:54;99887.84;;;5.70;73.14
20987;BME280;10652;50.306;8.570;2023-02-13T17:36:58;99887.81;;;5.64;73.47
20987;BME280;10652;50.306;8.570;2023-02-13T17:41:00;99896.53;;;5.62;76.22
20987;BME280;10652;50.306;8.570;2023-02-13T17:45:03;99892.13;;;5.51;76.66
20987;BME280;10652;50.306;8.570;2023-02-13T17:49:05;99895.56;;;5.37;76.22
20987;BME280;10652;50.306;8.570;2023-02-13T17:53:15;99902.47;;;5.26;77.26
20987;BME280;10652;50.306;8.570;2023-02-13T17:57:19;99897.19;;;5.07;77.34
20987;BME280;10652;50.306;8.570;2023-02-13T18:01:21;99903.22;;;4.99;78.69
20987;BME280;10652;50.306;8.570;2023-02-13T18:05:24;99897.06;;;4.86;78.30
20987;BME280;10652;50.306;8.570;2023-02-13T18:09:26;99901.38;;;4.83;78.27
20987;BME280;10652;50.306;8.570;2023-02-13T18:13:28;99901.34;;;4.74;78.27
20987;BME280;10652;50.306;8.570;2023-02-13T18:17:30;99904.75;;;4.63;78.02
20987;BME280;10652;50.306;8.570;2023-02-13T18:21:32;99907.31;;;4.56;77.95
20987;BME280;10652;50.306;8.570;2023-02-13T18:25:34;99903.75;;;4.46;79.29
20987;BME280;10652;50.306;8.570;2023-02-13T18:29:37;99902.94;;;4.52;80.73
20987;BME280;10652;50.306;8.570;2023-02-13T18:33:39;99908.19;;;4.56;81.23
20987;BME280;10652;50.306;8.570;2023-02-13T18:37:41;99900.41;;;4.62;81.05
20987;BME280;10652;50.306;8.570;2023-02-13T18:41:43;99897.81;;;4.64;80.82
20987;BME280;10652;50.306;8.570;2023-02-13T18:45:45;99906.50;;;4.69;81.95
20987;BME280;10652;50.306;8.570;2023-02-13T18:49:47;99908.28;;;4.75;81.82
20987;BME280;10652;50.306;8.570;2023-02-13T18:53:50;99898.69;;;4.66;81.05
20987;BME280;10652;50.306;8.570;2023-02-13T18:57:52;99906.47;;;4.61;81.25
20987;BME280;10652;50.306;8.570;2023-02-13T19:01:54;99898.63;;;4.54;80.42
20987;BME280;10652;50.306;8.570;2023-02-13T19:05:56;99890.69;;;4.39;80.11
20987;BME280;10652;50.306;8.570;2023-02-13T19:09:59;99888.06;;;4.31;80.48
20987;BME280;10652;50.306;8.570;2023-02-13T19:14:01;99896.47;;;4.04;79.38
20987;BME280;10652;50.306;8.570;2023-02-13T19:18:04;99893.63;;;3.81;80.63
20987;BME280;10652;50.306;8.570;2023-02-13T19:22:06;99891.78;;;3.68;80.53
20987;BME280;10652;50.306;8.570;2023-02-13T19:26:10;99890.84;;;3.62;81.29
20987;BME280;10652;50.306;8.570;2023-02-13T19:30:13;99901.19;;;3.59;81.99
20987;BME280;10652;50.306;8.570;2023-02-13T19:34:15;99901.09;;;3.50;81.59
20987;BME280;10652;50.306;8.570;2023-02-13T19:38:17;99901.00;;;3.39;82.92
20987;BME280;10652;50.306;8.570;2023-02-13T19:42:20;99911.34;;;3.36;82.88
20987;BME280;10652;50.306;8.570;2023-02-13T19:46:27;99903.50;;;3.30;82.86
20987;BME280;10652;50.306;8.570;2023-02-13T19:50:29;99905.97;;;3.22;82.59
20987;BME280;10652;50.306;8.570;2023-02-13T19:54:31;99900.66;;;3.10;82.43
20987;BME280;10652;50.306;8.570;2023-02-13T19:58:38;99898.88;;;3.06;82.85
20987;BME280;10652;50.306;8.570;2023-02-13T20:02:40;99902.31;;;3.04;82.91
20987;BME280;10652;50.306;8.570;2023-02-13T20:06:43;99909.25;;;3.06;83.88
20987;BME280;10652;50.306;8.570;2023-02-13T20:10:45;99904.84;;;2.99;83.06
20987;BME280;10652;50.306;8.570;2023-02-13T20:14:47;99903.84;;;2.91;83.52
20987;BME280;10652;50.306;8.570;2023-02-13T20:18:49;99904.59;;;2.82;83.60
20987;BME280;10652;50.306;8.570;2023-02-13T20:22:51;99901.00;;;2.71;82.76
20987;BME280;10652;50.306;8.570;2023-02-13T20:26:53;99899.88;;;2.53;82.72
20987;BME280;10652;50.306;8.570;2023-02-13T20:30:57;99906.41;;;2.29;84.12
20987;BME280;10652;50.306;8.570;2023-02-13T20:35:00;99914.13;;;2.25;86.68
20987;BME280;10652;50.306;8.570;2023-02-13T20:39:04;99911.44;;;2.20;87.01
20987;BME280;10652;50.306;8.570;2023-02-13T20:43:06;99917.16;;;2.01;86.81
20987;BME280;10652;50.306;8.570;2023-02-13T20:47:09;99919.72;;;1.98;87.91
20987;BME280;10652;50.306;8.570;2023-02-13T20:51:12;99908.59;;;2.03;88.37
20987;BME280;10652;50.306;8.570;2023-02-13T20:55:15;99906.09;;;2.08;87.72
20987;BME280;10652;50.306;8.570;2023-02-13T20:59:17;99909.34;;;1.98;87.04
20987;BME280;10652;50.306;8.570;2023-02-13T21:03:19;99900.75;;;1.99;88.26
20987;BME280;10652;50.306;8.570;2023-02-13T21:07:22;99890.44;;;2.03;87.90
20987;BME280;10652;50.306;8.570;2023-02-13T21:11:24;99895.56;;;1.99;87.30
20987;BME280;10652;50.306;8.570;2023-02-13T21:15:27;99897.22;;;1.97;88.21
20987;BME280;10652;50.306;8.570;2023-02-13T21:19:29;99890.16;;;1.87;87.65
20987;BME280;10652;50.306;8.570;2023-02-13T21:23:32;99886.50;;;1.77;88.36
20987;BME280;10652;50.306;8.570;2023-02-13T21:27:34;99896.81;;;1.73;90.51
20987;BME280;10652;50.306;8.570;2023-02-13T21:31:40;99884.03;;;1.83;92.91
20987;BME280;10652;50.306;8.570;2023-02-13T21:35:45;99886.84;;;1.94;94.26
20987;BME280;10652;50.306;8.570;2023-02-13T21:39:47;99888.72;;;2.04;95.69
20987;BME280;10652;50.306;8.570;2023-02-13T21:43:49;99872.34;;;2.07;95.75
20987;BME280;10652;50.306;8.570;2023-02-13T21:47:54;99872.31;;;2.03;95.35
20987;BME280;10652;50.306;8.570;2023-02-13T21:51:57;99871.47;;;2.06;94.80
20987;BME280;10652;50.306;8.570;2023-02-13T21:56:01;99864.50;;;2.02;94.04
20987;BME280;10652;50.306;8.570;2023-02-13T22:00:05;99862.69;;;1.98;93.52
20987;BME280;10652;50.306;8.570;2023-02-13T22:04:13;99853.09;;;1.92;93.42
20987;BME280;10652;50.306;8.570;2023-02-13T22:08:15;99848.75;;;1.91;93.61
20987;BME280;10652;50.306;8.570;2023-02-13T22:12:17;99856.41;;;1.84;93.31
20987;BME280;10652;50.306;8.570;2023-02-13T22:16:19;99854.53;;;1.75;93.22
20987;BME280;10652;50.306;8.570;2023-02-13T22:20:21;99861.19;;;1.61;92.67
20987;BME280;10652;50.306;8.570;2023-02-13T22:24:23;99862.75;;;1.51;94.20
20987;BME280;10652;50.306;8.570;2023-02-13T22:28:26;99865.22;;;1.45;94.88
20987;BME280;10652;50.306;8.570;2023-02-13T22:32:28;99862.53;;;1.39;95.77
20987;BME280;10652;50.306;8.570;2023-02-13T22:36:32;99872.91;;;1.41;96.39
20987;BME280;10652;50.306;8.570;2023-02-13T22:40:35;99863.50;;;1.44;96.77
20987;BME280;10652;50.306;8.570;2023-02-13T22:44:37;99865.16;;;1.42;96.56
20987;BME280;10652;50.306;8.570;2023-02-13T22:48:40;99854.81;;;1.42;96.69
20987;BME280;10652;50.306;8.570;2023-02-13T22:52:43;99854.78;;;1.41;96.49
20987;BME280;10652;50.306;8.570;2023-02-13T22:56:45;99855.66;;;1.41;97.29
20987;BME280;10652;50.306;8.570;2023-02-13T23:00:47;99854.69;;;1.36;96.84
20987;BME280;10652;50.306;8.570;2023-02-13T23:04:49;99854.69;;;1.35;97.51
20987;BME280;10652;50.306;8.570;2023-02-13T23:08:51;99859.78;;;1.30;97.19
20987;BME280;10652;50.306;8.570;2023-02-13T23:12:54;99857.16;;;1.29;97.54
20987;BME280;10652;50.306;8.570;2023-02-13T23:16:56;99852.97;;;1.35;99.37
20987;BME280;10652;50.306;8.570;2023-02-13T23:21:17;99851.47;;;1.48;100.00
20987;BME280;10652;50.306;8.570;2023-02-13T23:25:20;99851.66;;;1.58;100.00
20987;BME280;10652;50.306;8.570;2023-02-13T23:29:22;99844.22;;;1.77;100.00